sensor_id;sensor_type;location;lat;lon;timestamp;pressure;altitude;pressure_sealevel;temperature;humidity
21781;BME280;52576;53.614;9.894;2023-06-26T00:00:18;101162.59;;;20.97;69.73
21781;BME280;52576;53.614;9.894;2023-06-26T00:02:22;101157.44;;;20.95;69.73
21781;BME280;52576;53.614;9.894;2023-06-26T00:04:25;101155.91;;;20.93;69.68
21781;BME280;52576;53.614;9.894;2023-06-26T00:06:27;101158.75;;;20.91;69.87
21781;BME280;52576;53.614;9.894;2023-06-26T00:08:30;101149.25;;;20.89;70.00
21781;BME280;52576;53.614;9.894;2023-06-26T00:10:33;101158.22;;;20.88;69.82
21781;BME280;52576;53.614;9.894;2023-06-26T00:12:38;101144.22;;;20.86;70.06
21781;BME280;52576;53.614;9.894;2023-06-26T00:14:41;101150.69;;;20.83;70.32
21781;BME280;52576;53.614;9.894;2023-06-26T00:16:44;101152.69;;;20.81;70.13
21781;BME280;52576;53.614;9.894;2023-06-26T00:18:47;101148.53;;;20.79;70.19
21781;BME280;52576;53.614;9.894;2023-06-26T00:20:50;101148.69;;;20.77;70.22
21781;BME280;52576;53.614;9.894;2023-06-26T00:22:52;101145.34;;;20.75;70.53
21781;BME280;52576;53.614;9.894;2023-06-26T00:24:57;101136.00;;;20.71;70.56
21781;BME280;52576;53.614;9.894;2023-06-26T00:26:59;101137.00;;;20.70;70.65
21781;BME280;52576;53.614;9.894;2023-06-26T00:29:04;101135.50;;;20.67;70.79
21781;BME280;52576;53.614;9.894;2023-06-26T00:31:07;101131.31;;;20.65;70.67
21781;BME280;52576;53.614;9.894;2023-06-26T00:33:10;101123.47;;;20.63;70.97
21781;BME280;52576;53.614;9.894;2023-06-26T00:35:13;101128.81;;;20.63;70.82
21781;BME280;52576;53.614;9.894;2023-06-26T00:37:18;101127.97;;;20.63;70.63
21781;BME280;52576;53.614;9.894;2023-06-26T00:39:23;101128.81;;;20.63;70.74
21781;BME280;52576;53.614;9.894;2023-06-26T00:41:27;101127.13;;;20.62;70.77
21781;BME280;52576;53.614;9.894;2023-06-26T00:43:30;101127.13;;;20.62;70.95
21781;BME280;52576;53.614;9.894;2023-06-26T00:45:34;101125.47;;;20.61;71.01
21781;BME280;52576;53.614;9.894;2023-06-26T00:47:44;101122.97;;;20.60;70.68
21781;BME280;52576;53.614;9.894;2023-06-26T00:49:47;101120.44;;;20.58;70.91
21781;BME280;52576;53.614;9.894;2023-06-26T00:51:50;101118.78;;;20.57;70.94
21781;BME280;52576;53.614;9.894;2023-06-26T00:53:53;101117.09;;;20.56;71.35
21781;BME280;52576;53.614;9.894;2023-06-26T00:55:56;101115.59;;;20.54;71.42
21781;BME280;52576;53.614;9.894;2023-06-26T00:57:59;101112.44;;;20.50;71.56
21781;BME280;52576;53.614;9.894;2023-06-26T01:00:02;101107.44;;;20.47;71.42
21781;BME280;52576;53.614;9.894;2023-06-26T01:02:08;101109.41;;;20.45;71.57
21781;BME280;52576;53.614;9.894;2023-06-26T01:04:11;101112.38;;;20.42;71.59
21781;BME280;52576;53.614;9.894;2023-06-26T01:06:20;101111.72;;;20.40;71.47
21781;BME280;52576;53.614;9.894;2023-06-26T01:08:24;101112.03;;;20.37;71.74
21781;BME280;52576;53.614;9.894;2023-06-26T01:10:28;101108.66;;;20.35;71.54
21781;BME280;52576;53.614;9.894;2023-06-26T01:12:31;101103.47;;;20.33;71.61
21781;BME280;52576;53.614;9.894;2023-06-26T01:14:34;101106.28;;;20.32;71.57
21781;BME280;52576;53.614;9.894;2023-06-26T01:16:37;101100.28;;;20.30;71.81
21781;BME280;52576;53.614;9.894;2023-06-26T01:18:42;101097.78;;;20.28;71.73
21781;BME280;52576;53.614;9.894;2023-06-26T01:20:47;101104.09;;;20.27;71.88
21781;BME280;52576;53.614;9.894;2023-06-26T01:22:56;101105.94;;;20.27;71.56
21781;BME280;52576;53.614;9.894;2023-06-26T01:25:07;101097.28;;;20.25;71.59
21781;BME280;52576;53.614;9.894;2023-06-26T01:27:20;101093.78;;;20.24;71.65
21781;BME280;52576;53.614;9.894;2023-06-26T01:29:24;101095.63;;;20.24;72.10
21781;BME280;52576;53.614;9.894;2023-06-26T01:31:28;101084.97;;;20.24;71.68
21781;BME280;52576;53.614;9.894;2023-06-26T01:33:32;101083.31;;;20.23;71.94
21781;BME280;52576;53.614;9.894;2023-06-26T01:35:35;101080.78;;;20.21;71.92
21781;BME280;52576;53.614;9.894;2023-06-26T01:37:39;101071.97;;;20.21;71.77
21781;BME280;52576;53.614;9.894;2023-06-26T01:39:42;101070.16;;;20.21;71.57
21781;BME280;52576;53.614;9.894;2023-06-26T01:41:45;101076.31;;;20.22;71.95
21781;BME280;52576;53.614;9.894;2023-06-26T01:43:58;101067.66;;;20.20;71.77
21781;BME280;52576;53.614;9.894;2023-06-26T01:46:05;101072.13;;;20.19;71.93
21781;BME280;52576;53.614;9.894;2023-06-26T01:48:08;101073.28;;;20.17;71.89
21781;BME280;52576;53.614;9.894;2023-06-26T01:50:17;101062.63;;;20.17;72.01
21781;BME280;52576;53.614;9.894;2023-06-26T01:52:30;101060.97;;;20.16;71.88
21781;BME280;52576;53.614;9.894;2023-06-26T01:54:38;101057.63;;;20.14;72.07
21781;BME280;52576;53.614;9.894;2023-06-26T01:56:41;101057.63;;;20.14;71.87
21781;BME280;52576;53.614;9.894;2023-06-26T01:58:46;101063.09;;;20.12;71.78
21781;BME280;52576;53.614;9.894;2023-06-26T02:00:51;101064.09;;;20.11;71.83
21781;BME280;52576;53.614;9.894;2023-06-26T02:02:54;101060.75;;;20.09;71.94
21781;BME280;52576;53.614;9.894;2023-06-26T02:04:57;101063.56;;;20.08;72.29
21781;BME280;52576;53.614;9.894;2023-06-26T02:07:00;101054.06;;;20.05;72.35
21781;BME280;52576;53.614;9.894;2023-06-26T02:09:05;101052.41;;;20.04;72.14
21781;BME280;52576;53.614;9.894;2023-06-26T02:11:09;101051.56;;;20.04;72.39
21781;BME280;52576;53.614;9.894;2023-06-26T02:13:14;101042.91;;;20.02;72.40
21781;BME280;52576;53.614;9.894;2023-06-26T02:15:17;101047.56;;;19.99;72.54
21781;BME280;52576;53.614;9.894;2023-06-26T02:17:21;101042.41;;;19.98;72.46
21781;BME280;52576;53.614;9.894;2023-06-26T02:19:24;101037.25;;;19.96;72.60
21781;BME280;52576;53.614;9.894;2023-06-26T02:21:26;101044.53;;;19.94;72.77
21781;BME280;52576;53.614;9.894;2023-06-26T02:23:30;101037.53;;;19.93;72.70
21781;BME280;52576;53.614;9.894;2023-06-26T02:25:33;101047.50;;;19.91;72.83
21781;BME280;52576;53.614;9.894;2023-06-26T02:27:36;101042.19;;;19.91;72.54
21781;BME280;52576;53.614;9.894;2023-06-26T02:29:39;101044.00;;;19.91;72.62
21781;BME280;52576;53.614;9.894;2023-06-26T02:31:42;101037.03;;;19.90;72.85
21781;BME280;52576;53.614;9.894;2023-06-26T02:33:47;101027.38;;;19.89;72.68
21781;BME280;52576;53.614;9.894;2023-06-26T02:35:51;101026.53;;;19.88;72.54
21781;BME280;52576;53.614;9.894;2023-06-26T02:37:54;101024.88;;;19.87;72.64
21781;BME280;52576;53.614;9.894;2023-06-26T02:39:57;101024.03;;;19.87;72.50
21781;BME280;52576;53.614;9.894;2023-06-26T02:42:01;101028.50;;;19.86;72.60
21781;BME280;52576;53.614;9.894;2023-06-26T02:44:04;101024.19;;;19.85;72.70
21781;BME280;52576;53.614;9.894;2023-06-26T02:46:07;101026.84;;;19.85;72.74
21781;BME280;52576;53.614;9.894;2023-06-26T02:48:10;101027.84;;;19.84;72.41
21781;BME280;52576;53.614;9.894;2023-06-26T02:50:16;101022.50;;;19.84;72.32
21781;BME280;52576;53.614;9.894;2023-06-26T02:52:39;101025.19;;;19.84;72.67
21781;BME280;52576;53.614;9.894;2023-06-26T02:54:42;101018.19;;;19.83;72.60
21781;BME280;52576;53.614;9.894;2023-06-26T02:56:46;101017.34;;;19.83;72.40
21781;BME280;52576;53.614;9.894;2023-06-26T02:58:55;101012.88;;;19.83;72.53
21781;BME280;52576;53.614;9.894;2023-06-26T03:00:58;101018.19;;;19.83;72.57
21781;BME280;52576;53.614;9.894;2023-06-26T03:04:23;101004.88;;;19.83;72.46
21781;BME280;52576;53.614;9.894;2023-06-26T03:06:27;101006.56;;;19.84;72.32
21781;BME280;52576;53.614;9.894;2023-06-26T03:08:30;101009.22;;;19.84;72.30
21781;BME280;52576;53.614;9.894;2023-06-26T03:10:33;101006.56;;;19.84;72.09
21781;BME280;52576;53.614;9.894;2023-06-26T03:12:36;101009.06;;;19.86;72.19
21781;BME280;52576;53.614;9.894;2023-06-26T03:14:39;101004.56;;;19.86;72.24
21781;BME280;52576;53.614;9.894;2023-06-26T03:16:42;100992.09;;;19.87;71.85
21781;BME280;52576;53.614;9.894;2023-06-26T03:18:45;100999.09;;;19.88;72.04
21781;BME280;52576;53.614;9.894;2023-06-26T03:20:48;100996.44;;;19.88;71.97
21781;BME280;52576;53.614;9.894;2023-06-26T03:22:52;100992.78;;;19.89;71.71
21781;BME280;52576;53.614;9.894;2023-06-26T03:24:56;101000.78;;;19.89;71.74
21781;BME280;52576;53.614;9.894;2023-06-26T03:26:59;100995.44;;;19.89;71.92
21781;BME280;52576;53.614;9.894;2023-06-26T03:29:02;100990.97;;;19.89;71.71
21781;BME280;52576;53.614;9.894;2023-06-26T03:31:05;100997.94;;;19.90;71.59
21781;BME280;52576;53.614;9.894;2023-06-26T03:33:08;100989.97;;;19.90;71.62
21781;BME280;52576;53.614;9.894;2023-06-26T03:35:11;100994.31;;;19.91;71.58
21781;BME280;52576;53.614;9.894;2023-06-26T03:37:15;101001.44;;;19.91;71.70
21781;BME280;52576;53.614;9.894;2023-06-26T03:39:19;101000.63;;;19.90;71.79
21781;BME280;52576;53.614;9.894;2023-06-26T03:41:22;100991.66;;;19.91;71.65
21781;BME280;52576;53.614;9.894;2023-06-26T03:43:25;100988.16;;;19.91;71.53
21781;BME280;52576;53.614;9.894;2023-06-26T03:45:38;100979.19;;;19.92;71.74
21781;BME280;52576;53.614;9.894;2023-06-26T03:47:41;100980.00;;;19.92;71.61
21781;BME280;52576;53.614;9.894;2023-06-26T03:49:43;100980.69;;;19.94;71.30
21781;BME280;52576;53.614;9.894;2023-06-26T03:51:46;100973.53;;;19.95;71.34
21781;BME280;52576;53.614;9.894;2023-06-26T03:53:49;100974.38;;;19.95;71.53
21781;BME280;52576;53.614;9.894;2023-06-26T03:55:54;100977.72;;;19.97;71.22
21781;BME280;52576;53.614;9.894;2023-06-26T03:57:57;100967.75;;;19.99;71.19
21781;BME280;52576;53.614;9.894;2023-06-26T04:00:01;100971.06;;;20.02;71.10
21781;BME280;52576;53.614;9.894;2023-06-26T04:02:15;100961.78;;;20.06;71.18
21781;BME280;52576;53.614;9.894;2023-06-26T04:04:18;100962.44;;;20.08;70.87
21781;BME280;52576;53.614;9.894;2023-06-26T04:06:22;100969.28;;;20.10;70.84
21781;BME280;52576;53.614;9.894;2023-06-26T04:08:24;100968.13;;;20.13;70.73
21781;BME280;52576;53.614;9.894;2023-06-26T04:10:28;100959.84;;;20.16;71.03
21781;BME280;52576;53.614;9.894;2023-06-26T04:12:32;100957.84;;;20.18;70.78
21781;BME280;52576;53.614;9.894;2023-06-26T04:14:35;100954.03;;;20.20;70.45
21781;BME280;52576;53.614;9.894;2023-06-26T04:16:38;100952.88;;;20.23;70.59
21781;BME280;52576;53.614;9.894;2023-06-26T04:18:41;100949.91;;;20.26;70.44
21781;BME280;52576;53.614;9.894;2023-06-26T04:21:06;100948.72;;;20.28;70.39
21781;BME280;52576;53.614;9.894;2023-06-26T04:23:10;100950.91;;;20.33;70.44
21781;BME280;52576;53.614;9.894;2023-06-26T04:25:12;100945.25;;;20.36;69.99
21781;BME280;52576;53.614;9.894;2023-06-26T04:27:15;100944.97;;;20.39;69.97
21781;BME280;52576;53.614;9.894;2023-06-26T04:29:19;100934.00;;;20.42;69.82
21781;BME280;52576;53.614;9.894;2023-06-26T04:31:22;100936.34;;;20.45;69.62
21781;BME280;52576;53.614;9.894;2023-06-26T04:33:26;100935.88;;;20.50;69.65
21781;BME280;52576;53.614;9.894;2023-06-26T04:35:28;100936.34;;;20.53;69.67
21781;BME280;52576;53.614;9.894;2023-06-26T04:37:31;100936.03;;;20.56;69.61
21781;BME280;52576;53.614;9.894;2023-06-26T04:39:34;100935.69;;;20.59;69.38
21781;BME280;52576;53.614;9.894;2023-06-26T04:41:38;100930.88;;;20.63;69.24
21781;BME280;52576;53.614;9.894;2023-06-26T04:43:41;100931.25;;;20.68;69.25
21781;BME280;52576;53.614;9.894;2023-06-26T04:45:48;100935.41;;;20.71;68.81
21781;BME280;52576;53.614;9.894;2023-06-26T04:47:51;100927.91;;;20.74;68.69
21781;BME280;52576;53.614;9.894;2023-06-26T04:49:54;100924.78;;;20.79;68.44
21781;BME280;52576;53.614;9.894;2023-06-26T04:51:57;100926.91;;;20.83;68.12
21781;BME280;52576;53.614;9.894;2023-06-26T04:54:01;100929.09;;;20.88;68.36
21781;BME280;52576;53.614;9.894;2023-06-26T04:56:04;100924.25;;;20.91;67.83
21781;BME280;52576;53.614;9.894;2023-06-26T04:58:07;100925.59;;;20.95;68.02
21781;BME280;52576;53.614;9.894;2023-06-26T05:00:10;100924.28;;;20.99;67.60
21781;BME280;52576;53.614;9.894;2023-06-26T05:02:15;100918.47;;;21.04;67.44
21781;BME280;52576;53.614;9.894;2023-06-26T05:04:17;100922.25;;;21.10;67.54
21781;BME280;52576;53.614;9.894;2023-06-26T05:06:20;100917.44;;;21.13;67.33
21781;BME280;52576;53.614;9.894;2023-06-26T05:08:23;100910.94;;;21.16;67.19
21781;BME280;52576;53.614;9.894;2023-06-26T05:10:27;100913.13;;;21.20;67.28
21781;BME280;52576;53.614;9.894;2023-06-26T05:12:30;100910.13;;;21.23;66.93
21781;BME280;52576;53.614;9.894;2023-06-26T05:14:33;100909.63;;;21.28;66.88
21781;BME280;52576;53.614;9.894;2023-06-26T05:16:36;100906.44;;;21.32;66.42
21781;BME280;52576;53.614;9.894;2023-06-26T05:18:41;100905.09;;;21.37;66.32
21781;BME280;52576;53.614;9.894;2023-06-26T05:20:44;100896.44;;;21.43;65.98
21781;BME280;52576;53.614;9.894;2023-06-26T05:22:48;100890.78;;;21.46;66.01
21781;BME280;52576;53.614;9.894;2023-06-26T05:24:53;100899.94;;;21.51;65.78
21781;BME280;52576;53.614;9.894;2023-06-26T05:26:57;100891.44;;;21.56;65.62
21781;BME280;52576;53.614;9.894;2023-06-26T05:29:00;100891.72;;;21.61;65.41
21781;BME280;52576;53.614;9.894;2023-06-26T05:31:03;100893.72;;;21.67;65.22
21781;BME280;52576;53.614;9.894;2023-06-26T05:33:07;100885.19;;;21.72;65.05
21781;BME280;52576;53.614;9.894;2023-06-26T05:35:12;100881.19;;;21.76;65.02
21781;BME280;52576;53.614;9.894;2023-06-26T05:37:16;100876.00;;;21.82;64.74
21781;BME280;52576;53.614;9.894;2023-06-26T05:39:21;100875.28;;;21.88;64.68
21781;BME280;52576;53.614;9.894;2023-06-26T05:41:24;100872.94;;;21.93;64.42
21781;BME280;52576;53.614;9.894;2023-06-26T05:43:27;100879.28;;;22.00;64.30
21781;BME280;52576;53.614;9.894;2023-06-26T05:45:30;100872.25;;;22.08;64.11
21781;BME280;52576;53.614;9.894;2023-06-26T05:47:33;100863.50;;;22.14;63.95
21781;BME280;52576;53.614;9.894;2023-06-26T05:49:37;100867.31;;;22.19;63.86
21781;BME280;52576;53.614;9.894;2023-06-26T05:51:42;100866.81;;;22.24;63.41
21781;BME280;52576;53.614;9.894;2023-06-26T05:53:45;100867.13;;;22.29;63.28
21781;BME280;52576;53.614;9.894;2023-06-26T05:55:49;100863.91;;;22.33;63.32
21781;BME280;52576;53.614;9.894;2023-06-26T05:57:51;100865.03;;;22.39;63.07
21781;BME280;52576;53.614;9.894;2023-06-26T05:59:55;100859.00;;;22.45;62.87
21781;BME280;52576;53.614;9.894;2023-06-26T06:01:58;100857.28;;;22.52;62.87
21781;BME280;52576;53.614;9.894;2023-06-26T06:04:01;100853.72;;;22.60;63.00
21781;BME280;52576;53.614;9.894;2023-06-26T06:06:04;100855.47;;;22.67;62.76
21781;BME280;52576;53.614;9.894;2023-06-26T06:08:08;100848.59;;;22.73;62.21
21781;BME280;52576;53.614;9.894;2023-06-26T06:10:11;100855.75;;;22.81;61.92
21781;BME280;52576;53.614;9.894;2023-06-26T06:12:14;100856.88;;;22.86;61.76
21781;BME280;52576;53.614;9.894;2023-06-26T06:14:16;100848.94;;;22.93;61.65
21781;BME280;52576;53.614;9.894;2023-06-26T06:16:19;100847.88;;;23.02;61.18
21781;BME280;52576;53.614;9.894;2023-06-26T06:18:22;100843.47;;;23.09;61.43
21781;BME280;52576;53.614;9.894;2023-06-26T06:20:25;100848.72;;;23.17;61.20
21781;BME280;52576;53.614;9.894;2023-06-26T06:22:28;100841.63;;;23.24;61.04
21781;BME280;52576;53.614;9.894;2023-06-26T06:24:34;100840.53;;;23.33;60.69
21781;BME280;52576;53.614;9.894;2023-06-26T06:26:37;100842.28;;;23.41;60.82
21781;BME280;52576;53.614;9.894;2023-06-26T06:28:39;100831.69;;;23.48;60.55
21781;BME280;52576;53.614;9.894;2023-06-26T06:30:42;100832.28;;;23.58;60.05
21781;BME280;52576;53.614;9.894;2023-06-26T06:32:47;100834.81;;;23.66;59.68
21781;BME280;52576;53.614;9.894;2023-06-26T06:34:52;100826.69;;;23.74;59.69
21781;BME280;52576;53.614;9.894;2023-06-26T06:36:54;100828.47;;;23.82;59.49
21781;BME280;52576;53.614;9.894;2023-06-26T06:38:57;100820.50;;;23.88;59.32
21781;BME280;52576;53.614;9.894;2023-06-26T06:41:02;100816.69;;;23.97;58.66
21781;BME280;52576;53.614;9.894;2023-06-26T06:43:05;100812.25;;;24.05;58.41
21781;BME280;52576;53.614;9.894;2023-06-26T06:45:09;100806.13;;;24.11;58.14
21781;BME280;52576;53.614;9.894;2023-06-26T06:47:12;100809.69;;;24.18;58.08
21781;BME280;52576;53.614;9.894;2023-06-26T06:49:15;100803.59;;;24.24;57.93
21781;BME280;52576;53.614;9.894;2023-06-26T06:51:18;100796.88;;;24.28;57.81
21781;BME280;52576;53.614;9.894;2023-06-26T06:53:20;100792.78;;;24.32;57.61
21781;BME280;52576;53.614;9.894;2023-06-26T06:55:24;100800.44;;;24.35;57.30
21781;BME280;52576;53.614;9.894;2023-06-26T06:57:28;100799.03;;;24.39;57.24
21781;BME280;52576;53.614;9.894;2023-06-26T06:59:32;100807.31;;;24.44;56.93
21781;BME280;52576;53.614;9.894;2023-06-26T07:01:34;100796.22;;;24.47;56.67
21781;BME280;52576;53.614;9.894;2023-06-26T07:03:37;100804.50;;;24.52;56.74
21781;BME280;52576;53.614;9.894;2023-06-26T07:05:41;100799.22;;;24.59;56.65
21781;BME280;52576;53.614;9.894;2023-06-26T07:07:44;100797.63;;;24.64;56.68
21781;BME280;52576;53.614;9.894;2023-06-26T07:09:46;100798.66;;;24.70;56.22
21781;BME280;52576;53.614;9.894;2023-06-26T07:11:49;100797.06;;;24.76;56.37
21781;BME280;52576;53.614;9.894;2023-06-26T07:13:54;100800.66;;;24.83;56.30
21781;BME280;52576;53.614;9.894;2023-06-26T07:15:58;100792.47;;;24.91;56.13
21781;BME280;52576;53.614;9.894;2023-06-26T07:18:01;100792.31;;;24.99;56.19
21781;BME280;52576;53.614;9.894;2023-06-26T07:20:05;100788.66;;;25.07;55.84
21781;BME280;52576;53.614;9.894;2023-06-26T07:22:10;100791.22;;;25.15;55.35
21781;BME280;52576;53.614;9.894;2023-06-26T07:24:13;100790.19;;;25.22;55.27
21781;BME280;52576;53.614;9.894;2023-06-26T07:26:16;100786.94;;;25.27;54.99
21781;BME280;52576;53.614;9.894;2023-06-26T07:28:29;100796.06;;;25.32;54.67
21781;BME280;52576;53.614;9.894;2023-06-26T07:30:34;100805.81;;;25.40;54.75
21781;BME280;52576;53.614;9.894;2023-06-26T07:32:37;100807.47;;;25.48;54.57
21781;BME280;52576;53.614;9.894;2023-06-26T07:34:40;100794.91;;;25.55;54.40
21781;BME280;52576;53.614;9.894;2023-06-26T07:36:43;100786.75;;;25.63;54.09
21781;BME280;52576;53.614;9.894;2023-06-26T07:38:46;100798.34;;;25.70;53.65
21781;BME280;52576;53.614;9.894;2023-06-26T07:40:49;100799.81;;;25.79;53.41
21781;BME280;52576;53.614;9.894;2023-06-26T07:42:52;100799.63;;;25.87;53.36
21781;BME280;52576;53.614;9.894;2023-06-26T07:44:55;100788.09;;;25.93;53.21
21781;BME280;52576;53.614;9.894;2023-06-26T07:46:59;100793.88;;;26.03;52.74
21781;BME280;52576;53.614;9.894;2023-06-26T07:49:02;100796.78;;;26.09;52.59
21781;BME280;52576;53.614;9.894;2023-06-26T07:51:05;100791.44;;;26.15;52.29
21781;BME280;52576;53.614;9.894;2023-06-26T07:53:08;100798.28;;;26.24;52.51
21781;BME280;52576;53.614;9.894;2023-06-26T07:55:11;100786.94;;;26.35;51.81
21781;BME280;52576;53.614;9.894;2023-06-26T07:57:13;100779.53;;;26.44;51.48
21781;BME280;52576;53.614;9.894;2023-06-26T07:59:17;100788.81;;;26.55;51.37
21781;BME280;52576;53.614;9.894;2023-06-26T08:01:20;100778.69;;;26.63;51.00
21781;BME280;52576;53.614;9.894;2023-06-26T08:03:24;100780.56;;;26.69;49.86
21781;BME280;52576;53.614;9.894;2023-06-26T08:05:36;100780.56;;;26.69;49.31
21781;BME280;52576;53.614;9.894;2023-06-26T08:07:39;100774.56;;;26.67;49.11
21781;BME280;52576;53.614;9.894;2023-06-26T08:11:21;100763.81;;;26.67;48.88
21781;BME280;52576;53.614;9.894;2023-06-26T08:13:24;100758.84;;;26.71;48.76
21781;BME280;52576;53.614;9.894;2023-06-26T08:15:27;100751.00;;;26.76;48.92
21781;BME280;52576;53.614;9.894;2023-06-26T08:17:30;100749.72;;;26.79;48.80
21781;BME280;52576;53.614;9.894;2023-06-26T08:19:33;100747.22;;;26.84;49.08
21781;BME280;52576;53.614;9.894;2023-06-26T08:21:36;100742.06;;;26.89;48.53
21781;BME280;52576;53.614;9.894;2023-06-26T08:23:39;100743.94;;;26.95;48.04
21781;BME280;52576;53.614;9.894;2023-06-26T08:25:42;100746.38;;;27.03;47.99
21781;BME280;52576;53.614;9.894;2023-06-26T08:27:47;100748.25;;;27.09;47.81
21781;BME280;52576;53.614;9.894;2023-06-26T08:29:50;100747.19;;;27.17;47.41
21781;BME280;52576;53.614;9.894;2023-06-26T08:31:53;100743.88;;;27.21;47.41
21781;BME280;52576;53.614;9.894;2023-06-26T08:33:56;100753.34;;;27.30;47.34
21781;BME280;52576;53.614;9.894;2023-06-26T08:35:59;100754.34;;;27.43;47.09
21781;BME280;52576;53.614;9.894;2023-06-26T08:38:02;100762.34;;;27.56;46.70
21781;BME280;52576;53.614;9.894;2023-06-26T08:40:06;100766.50;;;27.65;46.52
21781;BME280;52576;53.614;9.894;2023-06-26T08:42:10;100775.59;;;27.70;46.54
21781;BME280;52576;53.614;9.894;2023-06-26T08:44:15;100790.72;;;27.72;46.61
21781;BME280;52576;53.614;9.894;2023-06-26T08:46:18;100810.19;;;27.67;45.70
21781;BME280;52576;53.614;9.894;2023-06-26T08:48:23;100801.09;;;27.55;45.76
21781;BME280;52576;53.614;9.894;2023-06-26T08:50:30;100823.72;;;27.41;46.78
21781;BME280;52576;53.614;9.894;2023-06-26T08:52:36;100812.56;;;27.30;47.14
21781;BME280;52576;53.614;9.894;2023-06-26T08:54:44;100813.00;;;27.27;47.60
21781;BME280;52576;53.614;9.894;2023-06-26T08:56:49;100808.00;;;27.31;47.45
21781;BME280;52576;53.614;9.894;2023-06-26T08:58:54;100813.78;;;27.34;47.98
21781;BME280;52576;53.614;9.894;2023-06-26T09:00:59;100818.75;;;27.37;47.66
21781;BME280;52576;53.614;9.894;2023-06-26T09:03:03;100814.63;;;27.42;47.99
21781;BME280;52576;53.614;9.894;2023-06-26T09:05:07;100824.53;;;27.48;47.97
21781;BME280;52576;53.614;9.894;2023-06-26T09:07:10;100818.69;;;27.57;48.07
21781;BME280;52576;53.614;9.894;2023-06-26T09:09:13;100826.56;;;27.72;48.28
21781;BME280;52576;53.614;9.894;2023-06-26T09:11:16;100827.72;;;27.89;47.35
21781;BME280;52576;53.614;9.894;2023-06-26T09:13:19;100827.03;;;28.00;46.94
21781;BME280;52576;53.614;9.894;2023-06-26T09:15:37;100842.50;;;28.12;47.17
21781;BME280;52576;53.614;9.894;2023-06-26T09:17:42;100859.09;;;28.22;46.67
21781;BME280;52576;53.614;9.894;2023-06-26T09:19:45;100857.63;;;28.26;46.74
21781;BME280;52576;53.614;9.894;2023-06-26T09:21:50;100864.06;;;28.25;46.47
21781;BME280;52576;53.614;9.894;2023-06-26T09:23:53;100852.88;;;28.21;46.56
21781;BME280;52576;53.614;9.894;2023-06-26T09:25:56;100869.66;;;28.17;47.06
21781;BME280;52576;53.614;9.894;2023-06-26T09:27:59;100848.53;;;28.07;47.08
21781;BME280;52576;53.614;9.894;2023-06-26T09:30:03;100861.88;;;27.95;47.46
21781;BME280;52576;53.614;9.894;2023-06-26T09:32:08;100874.19;;;27.78;46.99
21781;BME280;52576;53.614;9.894;2023-06-26T09:34:13;100876.72;;;27.53;47.54
21781;BME280;52576;53.614;9.894;2023-06-26T09:36:20;100883.81;;;27.21;47.76
21781;BME280;52576;53.614;9.894;2023-06-26T09:38:23;100893.91;;;26.93;48.59
21781;BME280;52576;53.614;9.894;2023-06-26T09:40:26;100892.03;;;26.67;49.46
21781;BME280;52576;53.614;9.894;2023-06-26T09:42:29;100905.66;;;26.46;50.41
21781;BME280;52576;53.614;9.894;2023-06-26T09:44:32;100909.06;;;26.26;51.13
21781;BME280;52576;53.614;9.894;2023-06-26T09:46:37;100929.44;;;26.08;51.74
21781;BME280;52576;53.614;9.894;2023-06-26T09:48:40;100919.44;;;25.88;52.20
21781;BME280;52576;53.614;9.894;2023-06-26T09:50:45;100919.72;;;25.65;52.59
21781;BME280;52576;53.614;9.894;2023-06-26T09:53:09;100921.00;;;25.42;53.37
21781;BME280;52576;53.614;9.894;2023-06-26T09:55:12;100928.03;;;25.21;53.97
21781;BME280;52576;53.614;9.894;2023-06-26T09:57:17;100926.41;;;24.99;54.74
21781;BME280;52576;53.614;9.894;2023-06-26T09:59:20;100937.09;;;24.78;55.04
21781;BME280;52576;53.614;9.894;2023-06-26T10:01:23;100929.69;;;24.58;55.92
21781;BME280;52576;53.614;9.894;2023-06-26T10:03:26;100925.97;;;24.38;56.56
21781;BME280;52576;53.614;9.894;2023-06-26T10:05:29;100932.53;;;24.21;57.46
21781;BME280;52576;53.614;9.894;2023-06-26T10:07:34;100935.41;;;24.05;58.31
21781;BME280;52576;53.614;9.894;2023-06-26T10:09:41;100936.44;;;23.89;59.29
21781;BME280;52576;53.614;9.894;2023-06-26T10:11:49;100959.88;;;23.72;60.10
21781;BME280;52576;53.614;9.894;2023-06-26T10:13:55;100963.91;;;23.53;61.23
21781;BME280;52576;53.614;9.894;2023-06-26T10:16:22;100987.53;;;23.27;62.93
21781;BME280;52576;53.614;9.894;2023-06-26T10:18:27;100996.91;;;23.00;64.37
21781;BME280;52576;53.614;9.894;2023-06-26T10:20:32;100994.06;;;22.71;64.70
21781;BME280;52576;53.614;9.894;2023-06-26T10:22:43;101003.25;;;22.37;65.57
21781;BME280;52576;53.614;9.894;2023-06-26T10:24:47;101011.56;;;22.03;66.94
21781;BME280;52576;53.614;9.894;2023-06-26T10:26:56;101014.41;;;21.69;67.95
21781;BME280;52576;53.614;9.894;2023-06-26T10:29:01;101010.75;;;21.38;69.09
21781;BME280;52576;53.614;9.894;2023-06-26T10:31:06;101017.22;;;21.11;70.77
21781;BME280;52576;53.614;9.894;2023-06-26T10:33:12;101027.00;;;20.86;71.13
21781;BME280;52576;53.614;9.894;2023-06-26T10:35:16;101022.94;;;20.65;72.64
21781;BME280;52576;53.614;9.894;2023-06-26T10:37:19;101022.22;;;20.47;73.60
21781;BME280;52576;53.614;9.894;2023-06-26T10:39:24;101019.97;;;20.34;74.54
21781;BME280;52576;53.614;9.894;2023-06-26T10:41:27;101017.59;;;20.23;75.59
21781;BME280;52576;53.614;9.894;2023-06-26T10:43:30;101019.22;;;20.16;76.11
21781;BME280;52576;53.614;9.894;2023-06-26T10:45:34;101012.38;;;20.14;77.04
21781;BME280;52576;53.614;9.894;2023-06-26T10:47:40;101017.53;;;20.15;77.82
21781;BME280;52576;53.614;9.894;2023-06-26T10:49:46;101016.41;;;20.18;78.18
21781;BME280;52576;53.614;9.894;2023-06-26T10:52:10;101021.41;;;20.21;78.45